createdAt,value
2022-12-16T00:00:16.214Z,93373.31
2022-12-16T00:02:44.354Z,93389.09
2022-12-16T00:05:12.328Z,93375.59
2022-12-16T00:07:40.357Z,93375.97
2022-12-16T00:10:10.000Z,93389.97
2022-12-16T00:12:38.211Z,93381.03
2022-12-16T00:15:06.659Z,93383.06
2022-12-16T00:17:34.571Z,93364.22
2022-12-16T00:20:04.196Z,93378.34
2022-12-16T00:22:32.295Z,93381.16
2022-12-16T00:25:00.184Z,93381.81
2022-12-16T00:27:28.092Z,93375.53
2022-12-16T00:29:56.058Z,93375.69
2022-12-16T00:32:24.028Z,93383.13
2022-12-16T00:34:51.890Z,93377.44
2022-12-16T00:37:20.036Z,93389.41
2022-12-16T00:39:48.363Z,93388.41
2022-12-16T00:42:16.309Z,93390.50
2022-12-16T00:44:44.163Z,93397.78
2022-12-16T00:47:12.161Z,93396.19
2022-12-16T00:49:40.085Z,93381.53
2022-12-16T00:52:08.173Z,93394.22
2022-12-16T00:54:36.013Z,93382.13
2022-12-16T00:57:04.042Z,93387.50
2022-12-16T00:59:32.241Z,93384.16
2022-12-16T01:02:00.380Z,93380.53
2022-12-16T01:04:28.529Z,93376.50
2022-12-16T01:06:56.423Z,93381.50
2022-12-16T01:09:24.438Z,93377.63
2022-12-16T01:11:52.339Z,93382.22
2022-12-16T01:14:20.075Z,93369.84
2022-12-16T01:16:47.968Z,93380.03
2022-12-16T01:19:16.064Z,93388.88
2022-12-16T01:21:44.204Z,93386.69
2022-12-16T01:24:12.511Z,93378.72
2022-12-16T01:26:40.815Z,93392.03
2022-12-16T01:29:09.153Z,93367.88
2022-12-16T01:31:37.775Z,93375.69
2022-12-16T01:34:05.732Z,93367.44
2022-12-16T01:36:33.614Z,93352.88
2022-12-16T01:39:01.731Z,93364.59
2022-12-16T01:41:29.754Z,93362.41
2022-12-16T01:44:18.509Z,93369.63
2022-12-16T01:46:51.309Z,93353.44
2022-12-16T01:49:28.761Z,93345.84
2022-12-16T01:52:02.135Z,93359.91
2022-12-16T01:54:41.745Z,93351.84
2022-12-16T01:57:14.013Z,93356.47
2022-12-16T01:59:46.716Z,93356.59
2022-12-16T02:02:15.455Z,93360.69
2022-12-16T02:05:03.514Z,93362.19
2022-12-16T02:07:31.413Z,93359.56
2022-12-16T02:10:00.217Z,93363.66
2022-12-16T02:12:44.912Z,93369.94
2022-12-16T02:15:39.679Z,93344.00
2022-12-16T02:18:19.616Z,93357.06
2022-12-16T02:20:50.348Z,93367.97
2022-12-16T02:23:43.983Z,93348.63
2022-12-16T02:26:11.910Z,93298.66
2022-12-16T02:29:24.431Z,93287.59
2022-12-16T02:32:01.320Z,93334.81
2022-12-16T02:34:37.834Z,93335.09
2022-12-16T02:37:17.503Z,93334.31
2022-12-16T02:40:03.521Z,93331.81
2022-12-16T02:42:40.324Z,93324.84
2022-12-16T02:45:20.435Z,93334.31
2022-12-16T02:47:48.275Z,93340.38
2022-12-16T02:50:21.866Z,93348.47
2022-12-16T02:52:50.984Z,93338.50
2022-12-16T02:55:19.452Z,93336.53
2022-12-16T03:00:54.047Z,93367.03
2022-12-16T03:14:56.360Z,93367.13
2022-12-16T03:17:25.877Z,93368.75
2022-12-16T03:20:07.433Z,93371.78
2022-12-16T03:22:39.065Z,93368.75
2022-12-16T03:25:07.980Z,93350.47
2022-12-16T03:27:46.373Z,93347.84
2022-12-16T03:30:20.092Z,93334.00
2022-12-16T03:32:59.922Z,93344.81
2022-12-16T03:35:33.732Z,93341.59
2022-12-16T03:38:04.023Z,93348.22
2022-12-16T03:40:33.735Z,93346.38
2022-12-16T03:43:03.942Z,93337.66
2022-12-16T03:45:38.570Z,93335.63
2022-12-16T03:48:11.670Z,93339.78
2022-12-16T03:50:40.756Z,93342.94
2022-12-16T03:53:08.902Z,93351.69
2022-12-16T03:55:37.153Z,93342.00
2022-12-16T03:58:05.168Z,93346.28
2022-12-16T04:00:33.896Z,93358.44
2022-12-16T04:03:02.151Z,93355.53
2022-12-16T04:05:30.333Z,93359.88
2022-12-16T04:08:01.808Z,93365.50
2022-12-16T04:10:49.112Z,93374.00
2022-12-16T04:13:35.640Z,93364.91
2022-12-16T04:16:23.203Z,93362.41
2022-12-16T04:19:09.873Z,93359.06
2022-12-16T04:21:56.620Z,93369.75
2022-12-16T04:24:29.004Z,93369.16
2022-12-16T04:27:16.028Z,93373.44
2022-12-16T04:30:04.698Z,93369.03
2022-12-16T04:32:53.123Z,93365.50
2022-12-16T04:35:40.002Z,93356.66
2022-12-16T04:38:26.542Z,93353.00
2022-12-16T04:41:12.839Z,93342.63
2022-12-16T04:43:59.473Z,93332.09
2022-12-16T04:46:46.473Z,93339.28
2022-12-16T04:49:33.194Z,93352.81
2022-12-16T04:52:19.448Z,93358.28
2022-12-16T04:55:05.916Z,93361.66
2022-12-16T04:57:52.172Z,93361.56
2022-12-16T05:00:39.586Z,93365.38
2022-12-16T05:03:26.631Z,93343.50
2022-12-16T05:06:13.165Z,93361.41
2022-12-16T05:08:59.795Z,93352.66
2022-12-16T05:11:46.365Z,93360.94
2022-12-16T05:14:33.153Z,93348.63
2022-12-16T05:17:21.407Z,93360.22
2022-12-16T05:20:07.813Z,93377.38
2022-12-16T05:22:54.194Z,93363.56
2022-12-16T05:25:40.798Z,93374.41
2022-12-16T05:28:27.462Z,93379.59
2022-12-16T05:31:13.847Z,93383.84
2022-12-16T05:34:00.484Z,93380.53
2022-12-16T05:36:47.256Z,93393.31
2022-12-16T05:39:33.769Z,93389.59
2022-12-16T05:42:20.261Z,93403.44
2022-12-16T05:45:06.700Z,93415.88
2022-12-16T05:47:53.295Z,93421.75
2022-12-16T05:50:39.617Z,93424.16
2022-12-16T05:53:29.527Z,93408.72
2022-12-16T05:56:16.028Z,93410.72
2022-12-16T05:59:02.274Z,93432.69
2022-12-16T06:01:48.995Z,93439.72
2022-12-16T06:04:35.195Z,93440.97
2022-12-16T06:07:21.497Z,93442.91
2022-12-16T06:10:08.246Z,93436.34
2022-12-16T06:12:54.531Z,93441.53
2022-12-16T06:15:41.349Z,93451.00
2022-12-16T06:18:27.976Z,93457.53
2022-12-16T06:21:14.566Z,93455.78
2022-12-16T06:24:00.816Z,93453.50
2022-12-16T06:26:47.610Z,93455.72
2022-12-16T06:29:34.067Z,93460.56
2022-12-16T06:32:20.985Z,93476.91
2022-12-16T06:35:07.465Z,93483.16
2022-12-16T06:37:53.757Z,93464.38
2022-12-16T06:40:40.705Z,93479.63
2022-12-16T06:43:27.095Z,93482.25
2022-12-16T06:46:13.813Z,93480.63
2022-12-16T06:49:17.300Z,93481.53
2022-12-16T06:52:03.725Z,93479.38
2022-12-16T06:54:50.447Z,93479.50
2022-12-16T06:57:36.828Z,93481.03
2022-12-16T07:00:24.367Z,93472.13
2022-12-16T07:03:10.570Z,93487.13
2022-12-16T07:05:59.368Z,93473.88
2022-12-16T07:08:45.657Z,93470.53
2022-12-16T07:11:32.606Z,93461.44
2022-12-16T07:14:19.342Z,93463.16
2022-12-16T07:17:05.589Z,93472.03
2022-12-16T07:19:52.167Z,93492.44
2022-12-16T07:22:38.716Z,93477.91
2022-12-16T07:25:25.901Z,93488.28
2022-12-16T07:28:15.495Z,93479.91
2022-12-16T07:31:02.794Z,93483.22
2022-12-16T07:33:49.075Z,93496.94
2022-12-16T07:36:35.626Z,93484.38
2022-12-16T07:39:22.442Z,93487.84
2022-12-16T07:42:09.085Z,93485.28
2022-12-16T07:44:55.878Z,93494.84
2022-12-16T07:47:42.368Z,93486.44
2022-12-16T07:50:28.681Z,93485.28
2022-12-16T07:53:18.970Z,93493.94
2022-12-16T07:56:05.641Z,93490.09
2022-12-16T07:58:52.063Z,93480.88
2022-12-16T08:01:49.533Z,93477.63
2022-12-16T08:04:36.329Z,93481.28
2022-12-16T08:07:23.038Z,93472.97
2022-12-16T08:10:09.609Z,93482.00
2022-12-16T08:12:56.426Z,93492.72
2022-12-16T08:15:43.440Z,93477.00
2022-12-16T08:18:30.355Z,93474.69
2022-12-16T08:21:16.778Z,93467.50
2022-12-16T08:24:03.472Z,93470.31
2022-12-16T08:26:49.894Z,93469.28
2022-12-16T08:29:45.536Z,93456.81
2022-12-16T08:32:34.165Z,93465.97
2022-12-16T08:35:21.479Z,93454.75
2022-12-16T08:38:13.671Z,93463.69
2022-12-16T08:41:02.817Z,93454.44
2022-12-16T08:43:51.365Z,93462.66
2022-12-16T08:46:38.783Z,93462.75
2022-12-16T08:49:25.644Z,93448.03
2022-12-16T08:52:11.958Z,93446.69
2022-12-16T08:54:58.467Z,93446.56
2022-12-16T08:57:45.064Z,93449.06
2022-12-16T09:15:32.643Z,93412.28
2022-12-16T09:18:29.392Z,93428.25
2022-12-16T09:21:16.932Z,93424.53
2022-12-16T09:24:20.466Z,93416.72
2022-12-16T09:27:06.942Z,93428.06
2022-12-16T09:29:53.349Z,93421.69
2022-12-16T09:32:40.070Z,93419.34
2022-12-16T09:35:26.825Z,93404.41
2022-12-16T09:38:13.688Z,93398.00
2022-12-16T09:41:03.482Z,93395.88
2022-12-16T09:44:14.607Z,93393.53
2022-12-16T09:47:09.914Z,93402.84
2022-12-16T09:50:13.439Z,93393.28
2022-12-16T09:53:22.675Z,93396.09
2022-12-16T09:56:10.385Z,93387.41
2022-12-16T09:59:04.153Z,93385.03
2022-12-16T10:01:56.055Z,93373.47
2022-12-16T10:04:43.843Z,93380.13
2022-12-16T10:07:40.753Z,93378.69
2022-12-16T10:10:52.753Z,93380.69
2022-12-16T10:14:01.320Z,93383.47
2022-12-16T10:17:05.950Z,93382.31
2022-12-16T10:20:08.962Z,93375.88
2022-12-16T10:23:20.593Z,93385.78
2022-12-16T10:26:25.131Z,93396.25
2022-12-16T10:29:23.545Z,93392.63
2022-12-16T10:32:10.428Z,93398.16
2022-12-16T10:34:58.165Z,93385.19
2022-12-16T10:37:55.476Z,93378.84
2022-12-16T10:40:45.579Z,93369.91
2022-12-16T10:44:03.764Z,93372.50
2022-12-16T10:46:53.122Z,93382.50
2022-12-16T10:49:41.359Z,93374.47
2022-12-16T10:52:32.034Z,93366.06
2022-12-16T10:55:31.424Z,93370.34
2022-12-16T10:58:45.208Z,93363.06
2022-12-16T11:01:46.287Z,93356.31
2022-12-16T11:04:50.406Z,93362.09
2022-12-16T11:07:53.752Z,93351.03
2022-12-16T11:10:55.966Z,93359.53
2022-12-16T11:13:42.751Z,93356.50
2022-12-16T11:16:36.957Z,93355.25
2022-12-16T11:19:27.783Z,93359.19
2022-12-16T11:22:30.511Z,93362.34
2022-12-16T11:25:43.558Z,93348.69
2022-12-16T11:28:37.219Z,93342.66
2022-12-16T11:31:32.948Z,93339.41
2022-12-16T11:34:21.696Z,93341.78
2022-12-16T11:37:11.115Z,93344.59
2022-12-16T11:39:59.166Z,93332.31
2022-12-16T11:42:51.017Z,93345.72
2022-12-16T11:45:39.596Z,93340.47
2022-12-16T11:48:48.452Z,93341.09
2022-12-16T11:51:37.220Z,93332.31
2022-12-16T11:54:50.448Z,93332.91
2022-12-16T11:57:46.821Z,93332.91
2022-12-16T12:00:34.960Z,93326.16
2022-12-16T12:03:37.885Z,93321.00
2022-12-16T12:06:57.819Z,93319.94
2022-12-16T12:09:46.545Z,93304.56
2022-12-16T12:12:52.685Z,93309.22
2022-12-16T12:15:48.552Z,93320.13
2022-12-16T12:18:37.757Z,93315.63
2022-12-16T12:21:34.946Z,93317.06
2022-12-16T12:24:56.451Z,93311.78
2022-12-16T12:28:07.177Z,93318.44
2022-12-16T12:31:04.899Z,93302.88
2022-12-16T12:34:24.243Z,93299.44
2022-12-16T12:37:24.467Z,93291.34
2022-12-16T12:40:34.057Z,93279.25
2022-12-16T12:43:28.143Z,93296.84
2022-12-16T12:46:56.883Z,93293.94
2022-12-16T12:50:25.010Z,93291.53
2022-12-16T12:53:45.432Z,93279.16
2022-12-16T12:56:40.776Z,93281.41
2022-12-16T12:59:46.465Z,93290.81
2022-12-16T13:02:37.868Z,93285.78
2022-12-16T13:05:29.534Z,93280.22
2022-12-16T13:08:57.677Z,93293.00
2022-12-16T13:11:44.132Z,93305.53
2022-12-16T13:14:52.072Z,93300.63
2022-12-16T13:17:42.048Z,93294.16
2022-12-16T13:20:53.307Z,93308.78
2022-12-16T13:23:57.059Z,93315.69
2022-12-16T13:26:46.283Z,93316.19
2022-12-16T13:29:38.514Z,93305.75
2022-12-16T13:32:32.843Z,93314.53
2022-12-16T13:35:26.792Z,93319.00
2022-12-16T13:38:22.613Z,93322.97
2022-12-16T13:41:18.522Z,93327.72
2022-12-16T13:44:12.316Z,93324.69
2022-12-16T13:47:12.344Z,93321.22
2022-12-16T13:50:06.351Z,93320.88
2022-12-16T13:52:58.651Z,93335.53
2022-12-16T13:55:53.500Z,93328.50
2022-12-16T13:58:49.796Z,93331.66
2022-12-16T14:01:53.525Z,93327.59
2022-12-16T14:04:51.254Z,93333.16
2022-12-16T14:07:41.569Z,93327.00
2022-12-16T14:10:50.159Z,93318.41
2022-12-16T14:13:46.496Z,93323.91
2022-12-16T14:17:11.661Z,93318.00
2022-12-16T14:20:36.719Z,93330.28
2022-12-16T14:26:46.467Z,93337.44
2022-12-16T14:29:53.981Z,93348.94
2022-12-16T14:32:53.038Z,93352.06
2022-12-16T14:35:44.947Z,93358.16
2022-12-16T14:38:38.313Z,93350.41
2022-12-16T14:41:24.923Z,93354.38
2022-12-16T14:44:11.664Z,93365.25
2022-12-16T14:46:58.788Z,93360.66
2022-12-16T14:49:47.915Z,93370.88
2022-12-16T14:52:35.419Z,93379.69
2022-12-16T14:55:37.507Z,93389.16
2022-12-16T14:58:32.299Z,93383.69
2022-12-16T15:01:41.376Z,93389.75
2022-12-16T15:04:38.060Z,93395.59
2022-12-16T15:07:31.556Z,93397.22
2022-12-16T15:22:22.535Z,93370.06
2022-12-16T15:25:09.116Z,93375.75
2022-12-16T15:27:57.421Z,93376.72
2022-12-16T15:30:58.886Z,93383.41
2022-12-16T15:34:03.174Z,93378.34
2022-12-16T15:36:53.008Z,93388.47
2022-12-16T15:39:55.445Z,93388.47
2022-12-16T15:42:51.851Z,93402.28
2022-12-16T15:45:48.843Z,93402.06
2022-12-16T15:48:52.349Z,93403.66
2022-12-16T15:51:51.193Z,93398.75
2022-12-16T15:54:41.283Z,93392.28
2022-12-16T15:57:51.941Z,93385.94
2022-12-16T16:00:45.106Z,93392.28
2022-12-16T16:03:43.642Z,93399.47
2022-12-16T16:06:39.482Z,93396.25
2022-12-16T16:09:38.862Z,93405.69
2022-12-16T16:12:28.837Z,93412.03
2022-12-16T16:15:15.553Z,93413.97
2022-12-16T16:18:02.707Z,93429.59
2022-12-16T16:20:49.420Z,93421.53
2022-12-16T16:23:36.433Z,93426.38
2022-12-16T16:26:23.244Z,93437.56
2022-12-16T16:29:09.809Z,93440.53
2022-12-16T16:32:02.288Z,93443.84
2022-12-16T16:34:51.166Z,93443.41
2022-12-16T16:37:40.509Z,93440.75
2022-12-16T16:40:56.131Z,93398.00
2022-12-16T16:43:44.019Z,93435.19
2022-12-16T16:46:47.260Z,93453.00
2022-12-16T16:49:47.194Z,93443.75
2022-12-16T16:52:35.478Z,93454.31
2022-12-16T16:55:23.192Z,93452.66
2022-12-16T16:58:10.298Z,93447.00
2022-12-16T17:00:57.302Z,93449.44
2022-12-16T17:03:44.486Z,93446.47
2022-12-16T17:06:31.587Z,93442.28
2022-12-16T17:09:18.461Z,93451.47
2022-12-16T17:12:05.201Z,93438.03
2022-12-16T17:14:51.837Z,93440.03
2022-12-16T17:17:38.520Z,93442.34
2022-12-16T17:20:26.336Z,93442.66
2022-12-16T17:23:13.143Z,93437.53
2022-12-16T17:26:00.296Z,93427.84
2022-12-16T17:28:47.254Z,93430.94
2022-12-16T17:31:34.540Z,93431.75
2022-12-16T17:34:22.010Z,93428.72
2022-12-16T17:37:08.507Z,93425.06
2022-12-16T17:39:55.544Z,93431.69
2022-12-16T17:42:46.451Z,93417.16
2022-12-16T17:45:33.948Z,93422.09
2022-12-16T17:48:20.740Z,93422.34
2022-12-16T17:51:08.042Z,93423.28
2022-12-16T17:54:00.384Z,93420.84
2022-12-16T17:56:48.830Z,93410.59
2022-12-16T17:59:36.120Z,93416.75
2022-12-16T18:02:23.254Z,93402.19
2022-12-16T18:05:10.377Z,93401.75
2022-12-16T18:07:57.593Z,93409.22
2022-12-16T18:10:44.426Z,93407.94
2022-12-16T18:13:31.672Z,93421.00
2022-12-16T18:16:19.077Z,93428.59
2022-12-16T18:19:09.916Z,93412.81
2022-12-16T18:21:58.072Z,93427.56
2022-12-16T18:25:02.012Z,93426.06
2022-12-16T18:27:49.257Z,93421.91
2022-12-16T18:30:36.546Z,93434.16
2022-12-16T18:33:23.347Z,93434.31
2022-12-16T18:36:10.411Z,93451.09
2022-12-16T18:38:57.604Z,93440.53
2022-12-16T18:41:44.470Z,93455.63
2022-12-16T18:44:32.843Z,93448.38
2022-12-16T18:47:19.753Z,93449.16
2022-12-16T18:50:07.024Z,93452.88
2022-12-16T18:52:54.365Z,93458.03
2022-12-16T18:55:41.225Z,93449.81
2022-12-16T18:58:50.189Z,93439.34
2022-12-16T19:01:34.916Z,93456.31
2022-12-16T19:04:22.154Z,93454.94
2022-12-16T19:07:09.433Z,93461.06
2022-12-16T19:09:56.629Z,93470.50
2022-12-16T19:12:43.724Z,93482.41
2022-12-16T19:15:31.148Z,93489.88
2022-12-16T19:18:18.240Z,93481.22
2022-12-16T19:21:16.872Z,93482.25
2022-12-16T19:24:04.123Z,93471.88
2022-12-16T19:26:51.400Z,93463.53
2022-12-16T19:29:38.701Z,93470.94
2022-12-16T19:32:25.659Z,93460.84
2022-12-16T19:35:13.007Z,93460.13
2022-12-16T19:37:59.741Z,93470.59
2022-12-16T19:40:46.434Z,93465.69
2022-12-16T19:43:35.182Z,93466.25
2022-12-16T19:46:21.958Z,93472.56
2022-12-16T19:49:09.672Z,93472.47
2022-12-16T19:51:56.690Z,93466.59
2022-12-16T19:54:43.886Z,93470.81
2022-12-16T19:57:30.935Z,93475.78
2022-12-16T20:00:18.254Z,93463.91
2022-12-16T20:03:05.690Z,93470.38
2022-12-16T20:05:52.570Z,93466.88
2022-12-16T20:08:42.776Z,93472.97
2022-12-16T20:11:29.557Z,93477.94
2022-12-16T20:14:16.756Z,93474.75
2022-12-16T20:17:03.672Z,93476.75
2022-12-16T20:19:53.394Z,93469.59
2022-12-16T20:22:43.233Z,93473.03
2022-12-16T20:25:30.776Z,93475.13
2022-12-16T20:28:23.230Z,93472.91
2022-12-16T20:31:11.736Z,93468.31
2022-12-16T20:37:05.963Z,93480.84
2022-12-16T20:39:56.839Z,93475.97
2022-12-16T20:42:45.353Z,93459.06
2022-12-16T20:45:32.615Z,93463.94
2022-12-16T20:48:19.525Z,93470.06
2022-12-16T20:51:21.090Z,93474.69
2022-12-16T20:54:11.145Z,93462.09
2022-12-16T20:56:57.430Z,93470.88
2022-12-16T20:59:44.066Z,93465.94
2022-12-16T21:05:40.526Z,93454.38
2022-12-16T21:08:27.115Z,93468.81
2022-12-16T21:11:17.068Z,93462.56
2022-12-16T21:20:05.023Z,93466.69
2022-12-16T21:22:51.774Z,93465.66
2022-12-16T21:25:40.230Z,93463.16
2022-12-16T21:28:26.885Z,93474.47
2022-12-16T21:31:17.026Z,93477.22
2022-12-16T21:34:04.281Z,93483.66
2022-12-16T21:36:51.092Z,93481.50
2022-12-16T21:39:38.352Z,93475.22
2022-12-16T21:42:26.881Z,93466.94
2022-12-16T21:45:18.153Z,93469.91
2022-12-16T21:48:04.980Z,93461.16
2022-12-16T21:50:51.796Z,93460.22
2022-12-16T21:53:38.561Z,93449.50
2022-12-16T21:56:25.193Z,93437.81
2022-12-16T21:59:11.768Z,93446.28
2022-12-16T22:01:58.549Z,93446.41
2022-12-16T22:04:45.712Z,93444.56
2022-12-16T22:07:31.959Z,93439.25
2022-12-16T22:10:18.277Z,93439.97
2022-12-16T22:13:05.039Z,93438.91
2022-12-16T22:15:51.804Z,93440.44
2022-12-16T22:18:38.624Z,93438.34
2022-12-16T22:21:25.252Z,93439.63
2022-12-16T22:24:11.995Z,93437.31
2022-12-16T22:26:58.294Z,93435.03
2022-12-16T22:29:44.596Z,93434.69
2022-12-16T22:32:30.761Z,93424.31
2022-12-16T22:35:17.102Z,93436.78
2022-12-16T22:36:21.687Z,93442.94
2022-12-16T22:38:03.799Z,93435.97
2022-12-16T22:40:50.293Z,93435.63
2022-12-16T22:43:36.896Z,93431.59
2022-12-16T22:46:24.159Z,93434.47
2022-12-16T22:49:10.731Z,93430.03
2022-12-16T22:52:11.458Z,93424.56
2022-12-16T22:54:59.370Z,93418.16
2022-12-16T22:57:50.845Z,93419.63
2022-12-16T23:00:38.191Z,93408.84
2022-12-16T23:03:24.815Z,93418.16
2022-12-16T23:06:11.608Z,93420.91
2022-12-16T23:08:58.078Z,93412.59
2022-12-16T23:11:52.817Z,93418.94
2022-12-16T23:14:44.160Z,93417.31
2022-12-16T23:17:32.074Z,93411.34
2022-12-16T23:20:18.229Z,93412.59
2022-12-16T23:23:04.581Z,93401.56
2022-12-16T23:25:51.474Z,93413.16
2022-12-16T23:28:38.718Z,93392.78
2022-12-16T23:31:25.285Z,93394.38
2022-12-16T23:32:30.184Z,93478.00
2022-12-16T23:34:11.583Z,93386.34
2022-12-16T23:36:58.533Z,93389.69
2022-12-16T23:39:44.816Z,93384.97
2022-12-16T23:42:51.285Z,93386.56
2022-12-16T23:45:38.788Z,93371.59
2022-12-16T23:48:27.716Z,93381.84
2022-12-16T23:51:14.716Z,93362.97
2022-12-16T23:54:01.279Z,93349.72
2022-12-16T23:56:47.683Z,93352.94
2022-12-16T23:59:43.092Z,93359.44
